Dallas, PA (18612)

6:22 AM EDT on July 26, 2016 (GMT -0400)
Captains Quarters Shavertown | | Change Station

Elev 1145 ft 41.33 °N, 75.94 °W | Updated 8 minutes ago

Overcast
Overcast
65.5 °F
Feels Like 65.5 °F
N
3.2
Wind Variable Wind from South

Today
High -- | Low -- °F
--% Chance of Precip.
Yesterday
High -- | Low -- °F
Precip. -- in
Pressure 29.93 in
Visibility 2.5 miles
Clouds Overcast 400 ft
Dew Point 65 °F
Humidity 99%
Rainfall 0.00 in
Snow Depth Not available.
5:53 AM 8:26 PM
Waning Gibbous, 56% visible
METAR KAVP 260954Z 22007KT 2 1/2SM BR OVC004 21/19 A2995 RMK AO2 SFC VIS 4 SLP134 T02060194 $
Pressure 29.93 in
Visibility 2.5 miles
Clouds Overcast 400 ft
Dew Point 65 °F
Humidity 99%
Rainfall 0.00 in
Snow Depth Not available.
5:53 AM 8:26 PM
Waning Gibbous, 56% visible
METAR KAVP 260954Z 22007KT 2 1/2SM BR OVC004 21/19 A2995 RMK AO2 SFC VIS 4 SLP134 T02060194 $

10-Day Weather Forecast

Almanac

Astronomy

Jul. 26, 2016 Rise Set
Actual Time
Civil Twilight
Nautical Twilight
Astronomical Twilight
Moon
Length of Visible Light
Length of Day
Tomorrow will be .
, % of the Moon is Illuminated

Today's Extremes

State Highs State Lows

Community

WunderPhotos

Upload Photos

1,927,557 photos uploaded!

WunderBlog® & News

Nearby

Air Quality

  Air Quality AQ Index Pollutant
Not available.

Snow Depth

Station Depth Elevation

Earthquake Activity

City Distance Mag. Time & Date
Minimum magnitude displayed is 2.5.

Coastal Water Temperatures

Place Temperature

Stations

Nearby Weather Stations

Station Location Temp. Windchill Dew Point Humidity Wind Precip. Elev Updated Type
                   

Watches & Warnings

There are currently no watches in effect.